Time;durP1;ratioP1;P1;durP2;ratioP2;P2;SDS_P1;SDS_P2;PMS_P1;PMS_P2;Temp;Humidity;BMP_temperature;BMP_pressure;BME280_temperature;BME280_humidity;BME280_pressure;Samples;Min_cycle;Max_cycle;Signal;HPM_P1;HPM_P2
2021/07/19 00:01:57;;;;;;;5.20;4.00;;;18.10;99.90;;;;;;5041066;28;20541;-71
2021/07/19 00:04:23;;;;;;;4.37;3.30;;;18.10;99.90;;;;;;5034392;28;20744;-71
2021/07/19 00:06:49;;;;;;;6.60;4.40;;;18.10;99.90;;;;;;5034114;28;20451;-71
2021/07/19 00:09:16;;;;;;;4.57;4.10;;;18.10;99.90;;;;;;5034103;28;20392;-71
2021/07/19 00:11:42;;;;;;;7.00;4.47;;;18.00;99.90;;;;;;5034994;28;20411;-71
2021/07/19 00:14:08;;;;;;;7.33;4.50;;;18.00;99.90;;;;;;5034082;28;20479;-71
2021/07/19 00:16:35;;;;;;;6.27;4.50;;;18.00;99.90;;;;;;5033910;28;20399;-71
2021/07/19 00:19:02;;;;;;;6.30;4.17;;;17.90;99.90;;;;;;5033880;28;20759;-71
2021/07/19 00:21:27;;;;;;;6.93;4.10;;;17.90;99.90;;;;;;5033845;28;20391;-71
2021/07/19 00:23:54;;;;;;;4.07;3.67;;;17.90;99.90;;;;;;5036261;28;20756;-71
2021/07/19 00:26:20;;;;;;;5.63;4.27;;;17.90;99.90;;;;;;5053387;28;20160;-71
2021/07/19 00:28:47;;;;;;;5.73;4.60;;;17.80;99.90;;;;;;5052120;28;20529;-71
2021/07/19 00:31:13;;;;;;;6.03;4.63;;;17.80;99.90;;;;;;5034039;28;20416;-71
2021/07/19 00:33:39;;;;;;;6.63;4.27;;;17.80;99.90;;;;;;5033453;28;20410;-71
2021/07/19 00:36:05;;;;;;;5.13;4.47;;;17.70;99.90;;;;;;5033516;28;20641;-71
2021/07/19 00:38:31;;;;;;;9.33;4.30;;;17.70;99.90;;;;;;5033454;28;20499;-71
2021/07/19 00:40:56;;;;;;;9.77;5.00;;;17.70;99.90;;;;;;5033459;28;20475;-71
2021/07/19 00:43:22;;;;;;;5.83;4.70;;;17.70;99.90;;;;;;5033526;28;20169;-71
2021/07/19 00:45:47;;;;;;;7.57;4.70;;;17.60;99.90;;;;;;5050343;28;20259;-71
2021/07/19 00:48:14;;;;;;;8.87;4.67;;;17.60;99.90;;;;;;5053000;28;20199;-71
2021/07/19 00:50:40;;;;;;;6.97;4.27;;;17.60;99.90;;;;;;5053213;28;20160;-71
2021/07/19 00:53:07;;;;;;;5.83;5.20;;;17.50;99.90;;;;;;5053128;28;20399;-71
2021/07/19 00:55:38;;;;;;;4.70;4.30;;;17.50;99.90;;;;;;5053336;28;20624;-71
2021/07/19 00:58:05;;;;;;;7.30;4.20;;;17.50;99.90;;;;;;5053215;28;20482;-71
2021/07/19 01:00:34;;;;;;;6.13;4.00;;;17.50;99.90;;;;;;5037755;28;20448;-71
2021/07/19 01:03:03;;;;;;;4.43;3.60;;;17.40;99.90;;;;;;5035076;28;20569;-71
2021/07/19 01:05:30;;;;;;;7.90;3.87;;;17.40;99.90;;;;;;5033214;28;20417;-71
2021/07/19 01:07:56;;;;;;;3.67;3.37;;;17.40;99.90;;;;;;5032859;28;20443;-71
2021/07/19 01:10:23;;;;;;;4.10;3.70;;;17.30;99.90;;;;;;5033015;28;20465;-71
2021/07/19 01:12:52;;;;;;;5.13;4.00;;;17.30;99.90;;;;;;5032955;28;20761;-71
2021/07/19 01:15:20;;;;;;;4.80;4.40;;;17.30;99.90;;;;;;5032688;28;20941;-71
2021/07/19 01:17:46;;;;;;;6.80;4.30;;;17.30;99.90;;;;;;5033832;28;20441;-71
2021/07/19 01:20:12;;;;;;;5.20;4.47;;;17.20;99.90;;;;;;5051907;28;20411;-71
2021/07/19 01:26:00;;;;;;;8.17;4.60;;;17.20;99.90;;;;;;5069833;28;20550;-72
2021/07/19 01:28:48;;;;;;;5.97;3.93;;;17.20;99.90;;;;;;5068665;28;20813;-70
2021/07/19 01:31:19;;;;;;;6.50;4.37;;;17.20;99.90;;;;;;5068704;28;20422;-69
2021/07/19 01:33:47;;;;;;;5.60;3.67;;;17.10;99.90;;;;;;5069197;28;20409;-69
2021/07/19 01:36:15;;;;;;;5.73;4.20;;;17.10;99.90;;;;;;5055333;28;20762;-69
2021/07/19 01:38:41;;;;;;;7.70;4.43;;;17.10;99.90;;;;;;5049520;28;20395;-69
2021/07/19 01:41:08;;;;;;;4.43;4.03;;;17.10;99.90;;;;;;5049454;28;20411;-69
2021/07/19 01:43:34;;;;;;;4.97;4.03;;;17.00;99.90;;;;;;5049357;28;20449;-69
2021/07/19 01:46:01;;;;;;;5.17;4.20;;;17.00;99.90;;;;;;5049491;28;20388;-69
2021/07/19 01:48:29;;;;;;;8.30;4.40;;;17.00;99.90;;;;;;5049355;28;20387;-69
2021/07/19 01:50:56;;;;;;;9.37;4.37;;;16.90;99.90;;;;;;5049397;28;20388;-69
2021/07/19 01:53:23;;;;;;;4.13;3.73;;;16.90;99.90;;;;;;5049072;28;20422;-69
2021/07/19 01:55:48;;;;;;;5.33;4.37;;;16.90;99.90;;;;;;5049475;28;20456;-69
2021/07/19 01:58:16;;;;;;;7.97;4.50;;;16.90;99.90;;;;;;5049135;28;20478;-69
2021/07/19 02:00:42;;;;;;;7.17;3.80;;;16.90;99.90;;;;;;5048738;28;20752;-69
2021/07/19 02:03:07;;;;;;;5.77;4.27;;;16.90;99.90;;;;;;5049074;28;20403;-69
2021/07/19 02:05:33;;;;;;;4.97;4.50;;;16.80;99.90;;;;;;5049313;28;20484;-69
2021/07/19 02:08:00;;;;;;;5.60;4.33;;;16.80;99.90;;;;;;5049144;28;20187;-69
2021/07/19 02:10:28;;;;;;;8.10;5.37;;;16.80;99.90;;;;;;5048880;28;20195;-69
2021/07/19 02:12:56;;;;;;;5.40;4.30;;;16.80;99.90;;;;;;5048895;28;20398;-69
2021/07/19 02:15:22;;;;;;;7.40;4.10;;;16.80;99.90;;;;;;5048942;28;20407;-69
2021/07/19 02:17:52;;;;;;;8.37;4.43;;;16.80;99.90;;;;;;5048846;28;20427;-69
2021/07/19 02:20:18;;;;;;;7.23;4.37;;;16.70;99.90;;;;;;5048804;28;20413;-69
2021/07/19 02:22:46;;;;;;;4.33;3.63;;;16.70;99.90;;;;;;5048692;28;20487;-69
2021/07/19 02:25:14;;;;;;;6.40;4.97;;;16.70;99.90;;;;;;5061655;28;20527;-69
2021/07/19 02:27:43;;;;;;;6.90;4.70;;;16.60;99.90;;;;;;5050723;28;20437;-71
2021/07/19 02:30:11;;;;;;;6.33;4.77;;;16.60;99.90;;;;;;5048271;28;20450;-71
2021/07/19 02:32:42;;;;;;;7.53;4.57;;;16.60;99.90;;;;;;5048763;28;20824;-71
2021/07/19 02:35:09;;;;;;;5.37;4.70;;;16.60;99.90;;;;;;5043669;28;20410;-71
2021/07/19 02:37:37;;;;;;;5.30;4.80;;;16.60;99.90;;;;;;5035706;28;20403;-71
2021/07/19 02:40:06;;;;;;;5.23;4.53;;;16.60;99.90;;;;;;5035325;28;20756;-71
2021/07/19 02:42:34;;;;;;;7.43;4.90;;;16.60;99.90;;;;;;5035166;28;20456;-71
2021/07/19 02:45:02;;;;;;;11.80;4.83;;;16.50;99.90;;;;;;5034964;28;20447;-71
2021/07/19 02:47:29;;;;;;;6.37;4.70;;;16.50;99.90;;;;;;5034836;28;20433;-71
2021/07/19 02:49:55;;;;;;;5.77;4.00;;;16.50;99.90;;;;;;5034983;28;20958;-71
2021/07/19 02:52:22;;;;;;;5.97;4.70;;;16.50;99.90;;;;;;5035210;28;20395;-71
2021/07/19 02:54:49;;;;;;;7.67;4.47;;;16.40;99.90;;;;;;5035458;28;20435;-71
2021/07/19 02:57:15;;;;;;;5.00;4.50;;;16.40;99.90;;;;;;5034910;28;20946;-70
2021/07/19 02:59:41;;;;;;;5.33;4.63;;;16.40;99.90;;;;;;5034200;28;20455;-70
2021/07/19 03:02:10;;;;;;;4.70;4.30;;;16.40;99.90;;;;;;5034522;28;20920;-70
2021/07/19 03:04:37;;;;;;;6.20;4.90;;;16.40;99.90;;;;;;5034649;28;20187;-70
2021/07/19 03:07:06;;;;;;;5.00;4.17;;;16.40;99.90;;;;;;5034664;28;20988;-70
2021/07/19 03:09:34;;;;;;;9.67;4.63;;;16.40;99.90;;;;;;5034680;28;20406;-70
2021/07/19 03:12:00;;;;;;;6.53;4.67;;;16.30;99.90;;;;;;5034603;28;20819;-70
2021/07/19 03:14:28;;;;;;;5.20;4.47;;;16.30;99.90;;;;;;5034530;28;20407;-70
2021/07/19 03:16:55;;;;;;;6.73;5.20;;;16.30;99.90;;;;;;5034450;28;20477;-70
2021/07/19 03:19:22;;;;;;;6.10;4.93;;;16.30;99.90;;;;;;5034057;28;20403;-70
2021/07/19 03:21:53;;;;;;;5.33;4.00;;;16.30;99.90;;;;;;5034391;28;20387;-70
2021/07/19 03:24:21;;;;;;;7.60;4.97;;;16.30;99.90;;;;;;5039971;28;20874;-70
2021/07/19 03:26:47;;;;;;;7.47;5.37;;;16.30;99.90;;;;;;5054274;28;20425;-70
2021/07/19 03:29:13;;;;;;;7.00;5.27;;;16.30;99.90;;;;;;5045127;28;20470;-70
2021/07/19 03:31:39;;;;;;;7.50;5.30;;;16.20;99.90;;;;;;5034094;28;20561;-70
2021/07/19 03:34:06;;;;;;;5.77;4.90;;;16.20;99.90;;;;;;5034020;28;20955;-70
2021/07/19 03:36:32;;;;;;;7.53;4.40;;;16.20;99.90;;;;;;5034107;28;20434;-70
2021/07/19 03:39:00;;;;;;;6.70;5.10;;;16.20;99.90;;;;;;5034185;28;20452;-70
2021/07/19 03:41:29;;;;;;;7.30;5.60;;;16.20;99.90;;;;;;5034036;28;20877;-70
2021/07/19 03:43:55;;;;;;;8.00;5.10;;;16.20;99.90;;;;;;5033971;28;20444;-70
2021/07/19 03:46:22;;;;;;;7.07;4.90;;;16.10;99.90;;;;;;5033591;28;20391;-70
2021/07/19 03:48:48;;;;;;;8.93;6.27;;;16.10;99.90;;;;;;5033628;28;20403;-70
2021/07/19 03:51:14;;;;;;;7.27;5.10;;;16.10;99.90;;;;;;5033626;28;20427;-70
2021/07/19 03:53:40;;;;;;;6.00;5.40;;;16.10;99.90;;;;;;5033944;28;20395;-70
2021/07/19 03:56:06;;;;;;;7.83;6.00;;;16.10;99.90;;;;;;5033971;28;20478;-70
2021/07/19 03:58:32;;;;;;;10.80;5.63;;;16.10;99.90;;;;;;5033273;28;20545;-70
2021/07/19 04:00:59;;;;;;;13.00;6.80;;;16.10;99.90;;;;;;5033929;28;20614;-70
2021/07/19 04:03:28;;;;;;;10.70;6.40;;;16.10;99.90;;;;;;5033701;28;20438;-70
2021/07/19 04:05:59;;;;;;;11.63;7.20;;;16.10;99.90;;;;;;5033735;28;20935;-70
2021/07/19 04:08:27;;;;;;;9.17;6.23;;;16.00;99.90;;;;;;5033326;28;20412;-70
2021/07/19 04:10:53;;;;;;;7.90;6.50;;;16.00;99.90;;;;;;5033776;28;20415;-70
2021/07/19 04:13:20;;;;;;;9.80;5.87;;;16.00;99.90;;;;;;5033428;28;20453;-70
2021/07/19 04:15:48;;;;;;;10.60;6.53;;;16.00;99.90;;;;;;5033868;28;20432;-70
2021/07/19 04:18:13;;;;;;;8.07;6.03;;;16.10;99.90;;;;;;5033395;28;20470;-70
2021/07/19 04:20:41;;;;;;;11.10;7.63;;;16.10;99.90;;;;;;5033462;28;20392;-70
2021/07/19 04:23:10;;;;;;;9.40;6.53;;;16.10;99.90;;;;;;5033036;28;20164;-71
2021/07/19 04:25:37;;;;;;;8.43;6.40;;;16.10;99.90;;;;;;5040404;28;20489;-70
2021/07/19 04:28:03;;;;;;;7.37;5.43;;;16.10;99.90;;;;;;5033149;28;20419;-70
2021/07/19 04:30:37;;;;;;;9.53;7.20;;;16.20;99.90;;;;;;5033814;28;20426;-70
2021/07/19 04:33:05;;;;;;;8.30;5.83;;;16.20;99.90;;;;;;5033000;28;20388;-71
2021/07/19 04:35:30;;;;;;;9.10;6.50;;;16.30;99.90;;;;;;5033229;28;20418;-70
2021/07/19 04:37:56;;;;;;;7.30;5.80;;;16.30;99.90;;;;;;5033011;28;20395;-70
2021/07/19 04:40:24;;;;;;;7.73;6.90;;;16.40;99.90;;;;;;5033044;28;20157;-70
2021/07/19 04:42:50;;;;;;;8.40;5.97;;;16.40;99.90;;;;;;5032808;28;20415;-70
2021/07/19 04:45:18;;;;;;;7.63;5.90;;;16.40;99.90;;;;;;5033175;28;20605;-70
2021/07/19 04:47:44;;;;;;;13.80;6.33;;;16.50;99.90;;;;;;5033053;28;20396;-70
2021/07/19 04:50:14;;;;;;;7.33;6.13;;;16.50;99.90;;;;;;5033035;28;20499;-71
2021/07/19 04:52:40;;;;;;;7.50;6.70;;;16.60;99.90;;;;;;5033041;28;20176;-70
2021/07/19 04:55:09;;;;;;;8.43;6.10;;;16.60;99.90;;;;;;5032766;28;20396;-70
2021/07/19 04:57:36;;;;;;;7.90;6.30;;;16.70;99.90;;;;;;5032908;28;20161;-70
2021/07/19 05:00:05;;;;;;;9.33;6.13;;;16.70;99.90;;;;;;5032163;28;21003;-70
2021/07/19 05:02:34;;;;;;;7.10;5.83;;;16.80;99.90;;;;;;5032448;28;20415;-70
2021/07/19 05:05:01;;;;;;;11.27;6.73;;;16.80;99.90;;;;;;5032689;28;20439;-70
2021/07/19 05:07:30;;;;;;;10.87;5.90;;;16.90;99.90;;;;;;5032684;28;20388;-70
2021/07/19 05:09:58;;;;;;;7.37;6.40;;;17.00;99.90;;;;;;5032656;28;20449;-70
2021/07/19 05:12:25;;;;;;;8.37;6.73;;;17.00;99.90;;;;;;5032920;28;20392;-70
2021/07/19 05:14:51;;;;;;;9.87;6.40;;;17.00;99.90;;;;;;5032675;28;20738;-70
2021/07/19 05:17:17;;;;;;;11.40;6.47;;;17.10;99.90;;;;;;5032465;28;20426;-70
2021/07/19 05:19:43;;;;;;;8.37;6.70;;;17.10;99.90;;;;;;5032598;28;20677;-70
2021/07/19 05:22:11;;;;;;;8.67;5.97;;;17.20;99.90;;;;;;5032544;28;20210;-70
2021/07/19 05:24:37;;;;;;;8.00;5.73;;;17.20;99.90;;;;;;5032268;28;20498;-70
2021/07/19 05:27:05;;;;;;;10.07;6.53;;;17.30;99.90;;;;;;5032589;28;20399;-70
2021/07/19 05:29:31;;;;;;;9.57;6.57;;;17.40;99.90;;;;;;5032429;28;20431;-70
2021/07/19 05:31:57;;;;;;;8.40;6.53;;;17.40;99.90;;;;;;5032560;28;20388;-70
2021/07/19 05:34:22;;;;;;;7.90;6.00;;;17.50;99.90;;;;;;5032125;28;20837;-70
2021/07/19 05:36:48;;;;;;;8.43;7.10;;;17.50;99.90;;;;;;5032296;28;20645;-70
2021/07/19 05:39:13;;;;;;;10.33;6.73;;;17.60;99.90;;;;;;5032344;28;20212;-70
2021/07/19 05:41:39;;;;;;;8.07;6.57;;;17.60;99.90;;;;;;5032803;28;20158;-70
2021/07/19 05:44:05;;;;;;;8.87;6.83;;;17.70;99.90;;;;;;5032514;28;20271;-70
2021/07/19 05:46:31;;;;;;;9.40;7.70;;;17.70;99.90;;;;;;5032557;28;20176;-70
2021/07/19 05:48:56;;;;;;;7.80;6.90;;;17.80;99.90;;;;;;5032245;28;20150;-71
2021/07/19 05:51:22;;;;;;;10.17;6.63;;;17.80;99.90;;;;;;5031995;28;20593;-70
2021/07/19 05:53:48;;;;;;;10.20;7.10;;;17.90;99.90;;;;;;5032225;28;20219;-70
2021/07/19 05:56:13;;;;;;;9.30;6.60;;;18.00;99.90;;;;;;5032691;28;20161;-70
2021/07/19 05:58:39;;;;;;;8.37;7.50;;;18.00;99.90;;;;;;5032024;28;20204;-71
2021/07/19 06:01:04;;;;;;;7.50;5.80;;;18.10;99.90;;;;;;5032248;28;20161;-70
2021/07/19 06:03:30;;;;;;;10.17;7.40;;;18.20;99.90;;;;;;5032094;28;20189;-70
2021/07/19 06:05:55;;;;;;;11.57;6.67;;;18.20;99.90;;;;;;5032208;28;20247;-71
2021/07/19 06:08:21;;;;;;;17.33;7.63;;;18.30;99.90;;;;;;5031844;28;20176;-70
2021/07/19 06:10:46;;;;;;;9.60;7.27;;;18.40;99.90;;;;;;5035035;28;20157;-70
2021/07/19 06:13:12;;;;;;;8.90;6.50;;;18.50;99.90;;;;;;5034383;28;20242;-70
2021/07/19 06:15:39;;;;;;;9.40;6.90;;;18.60;99.90;;;;;;5032004;28;20169;-71
2021/07/19 06:18:05;;;;;;;7.63;6.77;;;18.70;99.90;;;;;;5033275;28;20163;-71
2021/07/19 06:20:30;;;;;;;8.93;6.70;;;18.70;99.90;;;;;;5035907;28;20501;-70
2021/07/19 06:23:00;;;;;;;8.33;7.10;;;18.80;99.90;;;;;;5035787;28;20588;-70
2021/07/19 06:25:29;;;;;;;9.23;7.83;;;18.90;99.90;;;;;;5027273;28;20283;-71
2021/07/19 06:27:55;;;;;;;7.33;5.80;;;18.90;99.90;;;;;;5028117;28;20483;-71
2021/07/19 06:30:20;;;;;;;7.90;6.80;;;19.00;99.90;;;;;;5023356;28;20833;-71
2021/07/19 06:32:46;;;;;;;7.50;6.03;;;19.20;99.90;;;;;;5036577;28;20172;-71
2021/07/19 06:35:11;;;;;;;8.97;7.07;;;19.30;99.90;;;;;;5044855;28;20195;-70
2021/07/19 06:37:37;;;;;;;7.80;6.50;;;19.40;99.90;;;;;;5025552;28;20663;-70
2021/07/19 06:40:05;;;;;;;9.60;7.00;;;19.40;99.90;;;;;;5032824;28;20188;-71
2021/07/19 06:42:31;;;;;;;9.97;7.43;;;19.50;99.90;;;;;;5032368;28;20218;-71
2021/07/19 06:44:57;;;;;;;9.03;7.20;;;19.60;99.90;;;;;;5030202;28;20965;-71
2021/07/19 06:47:24;;;;;;;9.10;6.80;;;19.70;99.90;;;;;;5016850;28;20587;-71
2021/07/19 06:49:49;;;;;;;8.13;6.30;;;19.70;99.90;;;;;;5019140;28;20501;-70
2021/07/19 06:52:16;;;;;;;7.70;5.93;;;19.70;99.90;;;;;;5028337;28;20522;-70
2021/07/19 06:54:41;;;;;;;9.83;6.83;;;19.70;99.90;;;;;;5023338;28;20185;-71
2021/07/19 06:57:07;;;;;;;7.40;6.60;;;19.70;99.90;;;;;;5015585;28;20893;-70
2021/07/19 06:59:33;;;;;;;6.90;6.20;;;19.70;99.90;;;;;;5025719;28;20305;-71
2021/07/19 07:01:58;;;;;;;8.60;7.13;;;19.70;99.90;;;;;;5020798;28;20514;-68
2021/07/19 07:04:24;;;;;;;9.63;7.43;;;19.70;99.90;;;;;;5034875;28;20305;-68
2021/07/19 07:06:50;;;;;;;8.30;6.40;;;19.70;99.90;;;;;;5034976;28;20165;-68
2021/07/19 07:09:15;;;;;;;7.40;6.67;;;19.80;99.90;;;;;;5022544;28;20524;-68
2021/07/19 07:11:41;;;;;;;8.37;6.67;;;19.70;99.90;;;;;;5015834;28;20631;-69
2021/07/19 07:14:07;;;;;;;10.43;6.60;;;19.70;99.90;;;;;;5015691;28;20231;-68
2021/07/19 07:16:34;;;;;;;10.30;7.77;;;19.70;99.90;;;;;;5034387;28;20187;-69
2021/07/19 07:19:00;;;;;;;8.90;6.80;;;19.60;99.90;;;;;;5032680;28;20433;-70
2021/07/19 07:21:26;;;;;;;11.27;7.80;;;19.50;99.90;;;;;;5034844;28;20758;-70
2021/07/19 07:23:51;;;;;;;8.07;7.13;;;19.50;99.90;;;;;;5034277;28;20462;-71
2021/07/19 07:26:17;;;;;;;8.07;6.77;;;19.40;99.90;;;;;;5019435;28;20187;-70
2021/07/19 07:28:42;;;;;;;10.10;6.70;;;19.30;99.90;;;;;;5016711;28;20528;-71
2021/07/19 07:31:10;;;;;;;9.70;6.73;;;19.30;99.90;;;;;;5023545;28;20630;-70
2021/07/19 07:33:36;;;;;;;9.13;7.43;;;19.30;99.90;;;;;;5031249;28;20200;-71
2021/07/19 07:36:03;;;;;;;12.13;8.13;;;19.40;99.90;;;;;;5033780;28;20425;-70
2021/07/19 07:38:28;;;;;;;13.50;8.53;;;19.40;99.90;;;;;;5020774;28;20507;-71
2021/07/19 07:40:54;;;;;;;8.03;7.17;;;19.40;99.90;;;;;;5031158;28;20513;-71
2021/07/19 07:43:19;;;;;;;10.67;7.47;;;19.60;99.90;;;;;;5034877;28;20196;-71
2021/07/19 07:45:45;;;;;;;8.93;6.70;;;19.60;99.90;;;;;;5044857;28;20162;-70
2021/07/19 07:48:11;;;;;;;13.90;7.70;;;19.60;99.90;;;;;;5032541;28;20189;-71
2021/07/19 07:50:36;;;;;;;11.07;7.80;;;19.60;99.90;;;;;;5031246;28;20184;-70
2021/07/19 07:53:02;;;;;;;10.37;7.80;;;19.70;99.90;;;;;;5048661;28;20164;-70
2021/07/19 07:55:27;;;;;;;10.93;8.40;;;19.60;99.90;;;;;;5044618;28;20173;-70
2021/07/19 07:57:53;;;;;;;10.77;7.97;;;19.60;99.90;;;;;;5014147;28;20171;-70
2021/07/19 08:00:20;;;;;;;11.10;8.83;;;19.60;99.90;;;;;;5041915;28;20249;-71
2021/07/19 08:02:46;;;;;;;11.87;9.43;;;19.60;99.90;;;;;;5053619;28;20169;-70
2021/07/19 08:05:12;;;;;;;12.70;9.97;;;19.70;99.90;;;;;;5053947;28;20442;-70
2021/07/19 08:07:38;;;;;;;13.50;10.33;;;19.80;99.90;;;;;;5030290;28;20427;-71
2021/07/19 08:10:06;;;;;;;13.57;10.60;;;19.90;99.90;;;;;;5022799;28;20412;-71
2021/07/19 08:12:32;;;;;;;11.37;9.03;;;20.00;99.90;;;;;;5033671;28;20525;-71
2021/07/19 08:14:58;;;;;;;13.70;10.40;;;20.00;99.90;;;;;;5049317;28;20459;-70
2021/07/19 08:17:25;;;;;;;13.97;11.50;;;20.00;99.90;;;;;;5027590;28;20174;-70
2021/07/19 08:19:50;;;;;;;11.87;10.00;;;20.00;99.90;;;;;;5021267;28;20430;-70
2021/07/19 08:22:17;;;;;;;13.93;11.07;;;19.90;99.90;;;;;;5030416;28;20992;-71
2021/07/19 08:24:43;;;;;;;12.40;10.80;;;19.90;99.90;;;;;;5032153;28;20681;-71
2021/07/19 08:27:09;;;;;;;12.80;11.17;;;19.90;99.90;;;;;;5015883;28;20443;-70
2021/07/19 08:29:34;;;;;;;17.40;10.87;;;19.90;99.90;;;;;;5020372;28;20177;-71
2021/07/19 08:32:00;;;;;;;16.43;12.40;;;19.90;99.90;;;;;;5021111;28;20180;-70
2021/07/19 08:34:26;;;;;;;15.27;12.57;;;19.90;99.90;;;;;;5023529;28;20208;-70
2021/07/19 08:36:51;;;;;;;17.40;12.53;;;19.90;99.90;;;;;;5022011;28;20727;-70
2021/07/19 08:39:17;;;;;;;17.57;12.80;;;19.90;99.90;;;;;;5027113;28;20198;-71
2021/07/19 08:41:43;;;;;;;14.57;12.20;;;19.90;99.90;;;;;;5030619;28;20225;-71
2021/07/19 08:44:10;;;;;;;14.60;12.33;;;19.90;99.90;;;;;;5023796;28;20200;-70
2021/07/19 08:46:39;;;;;;;15.33;12.60;;;19.80;99.90;;;;;;5026764;28;20519;-70
2021/07/19 08:49:05;;;;;;;15.83;12.07;;;19.80;99.90;;;;;;5034497;28;20408;-71
2021/07/19 08:51:31;;;;;;;17.93;13.43;;;19.70;99.90;;;;;;5026608;28;20438;-70
2021/07/19 08:53:59;;;;;;;14.87;12.20;;;19.70;99.90;;;;;;5027507;28;20260;-70
2021/07/19 08:56:26;;;;;;;17.50;11.83;;;19.70;99.90;;;;;;5030470;28;20486;-71
2021/07/19 08:58:51;;;;;;;15.27;11.77;;;19.60;99.90;;;;;;5028500;28;20455;-71
2021/07/19 09:01:17;;;;;;;12.40;10.30;;;19.60;99.90;;;;;;5029782;28;20431;-70
2021/07/19 09:03:45;;;;;;;13.00;9.40;;;19.60;99.90;;;;;;5031198;28;20205;-70
2021/07/19 09:06:11;;;;;;;13.33;10.30;;;19.60;99.90;;;;;;5027990;28;20433;-71
2021/07/19 09:08:46;;;;;;;14.93;11.30;;;19.60;99.90;;;;;;5029090;28;20471;-71
2021/07/19 09:11:11;;;;;;;15.07;10.97;;;19.70;99.90;;;;;;5030971;28;20437;-70
2021/07/19 09:13:37;;;;;;;14.33;10.57;;;19.80;99.90;;;;;;5026875;28;20520;-70
2021/07/19 09:16:02;;;;;;;15.50;10.93;;;19.90;99.90;;;;;;5013649;28;20581;-70
2021/07/19 09:18:29;;;;;;;12.97;11.27;;;19.90;99.90;;;;;;5030408;28;20284;-70
2021/07/19 09:20:55;;;;;;;14.63;10.77;;;20.00;99.90;;;;;;5020542;28;20181;-69
2021/07/19 09:23:29;;;;;;;14.57;10.93;;;20.00;99.90;;;;;;5024228;28;20475;-68
2021/07/19 09:26:08;;;;;;;16.57;12.73;;;20.00;99.90;;;;;;5018781;28;20640;-68
2021/07/19 09:28:33;;;;;;;16.80;12.10;;;19.90;99.90;;;;;;5028913;28;20449;-68
2021/07/19 09:31:06;;;;;;;18.10;11.60;;;19.90;99.90;;;;;;5024304;28;20952;-68
2021/07/19 09:33:35;;;;;;;14.40;10.77;;;19.90;99.90;;;;;;5029418;28;20183;-69
2021/07/19 09:36:01;;;;;;;13.40;10.67;;;20.00;99.90;;;;;;5039259;28;20958;-68
2021/07/19 09:38:29;;;;;;;15.90;10.67;;;20.20;99.90;;;;;;5027659;28;20943;-69
2021/07/19 09:40:58;;;;;;;11.77;9.60;;;20.30;99.90;;;;;;5024619;28;20436;-69
2021/07/19 09:43:26;;;;;;;13.20;11.17;;;20.50;99.90;;;;;;5027567;28;20439;-68
2021/07/19 09:46:03;;;;;;;12.37;10.80;;;20.60;99.90;;;;;;5032649;28;20431;-68
2021/07/19 09:48:29;;;;;;;12.17;10.20;;;20.80;99.90;;;;;;5032950;28;20438;-68
2021/07/19 09:50:55;;;;;;;11.87;9.53;;;20.90;99.90;;;;;;5030704;28;20434;-68
2021/07/19 09:56:17;;;;;;;14.30;10.10;;;20.80;99.90;;;;;;5065638;28;21117;-70
2021/07/19 09:58:47;;;;;;;12.63;9.20;;;20.90;99.90;;;;;;5041283;28;20446;-70
2021/07/19 10:01:23;;;;;;;14.00;9.60;;;20.80;99.90;;;;;;5042197;28;20434;-70
2021/07/19 10:03:49;;;;;;;11.70;9.43;;;20.80;99.90;;;;;;5040917;28;20429;-70
2021/07/19 10:06:15;;;;;;;14.03;10.10;;;20.80;99.90;;;;;;5040007;28;20434;-70
2021/07/19 10:08:40;;;;;;;9.50;8.20;;;20.80;99.90;;;;;;5039734;28;20188;-70
2021/07/19 10:11:15;;;;;;;15.03;10.50;;;20.90;99.90;;;;;;5048111;28;20501;-70
2021/07/19 10:13:47;;;;;;;13.57;9.80;;;21.00;99.90;;;;;;5056628;28;20554;-70
2021/07/19 10:16:12;;;;;;;12.97;9.70;;;21.10;99.90;;;;;;5047796;28;20446;-71
2021/07/19 10:18:39;;;;;;;11.77;9.50;;;21.10;99.90;;;;;;5048647;28;20431;-70
2021/07/19 10:21:06;;;;;;;15.70;9.70;;;21.00;99.90;;;;;;5047122;28;20179;-70
2021/07/19 10:23:32;;;;;;;10.20;8.60;;;21.00;99.90;;;;;;5046157;28;20456;-70
2021/07/19 10:25:58;;;;;;;14.33;10.20;;;21.00;99.90;;;;;;5046878;28;20441;-70
2021/07/19 10:28:25;;;;;;;10.83;9.37;;;20.90;99.90;;;;;;5043840;28;20453;-70
2021/07/19 10:30:53;;;;;;;13.67;9.50;;;20.80;99.90;;;;;;5038405;28;20572;-70
2021/07/19 10:33:19;;;;;;;10.80;9.67;;;20.80;99.90;;;;;;5041275;28;20963;-70
2021/07/19 10:35:45;;;;;;;12.47;9.57;;;20.70;99.90;;;;;;5046861;28;20451;-70
2021/07/19 10:38:17;;;;;;;10.40;8.67;;;20.60;99.90;;;;;;5047029;28;20665;-70
2021/07/19 10:40:43;;;;;;;12.43;9.23;;;20.60;99.90;;;;;;5044475;28;20427;-70
2021/07/19 10:45:50;;;;;;;12.23;9.33;;;20.60;99.90;;;;;;5069564;28;20750;-69
2021/07/19 10:48:32;;;;;;;10.50;8.40;;;20.80;99.90;;;;;;5045921;28;21039;-70
2021/07/19 10:51:12;;;;;;;9.00;7.83;;;21.00;99.90;;;;;;5044337;28;20531;-70
2021/07/19 10:53:37;;;;;;;12.13;8.67;;;21.20;99.90;;;;;;5043985;28;20434;-70
2021/07/19 10:56:06;;;;;;;12.50;9.77;;;21.30;99.90;;;;;;5050896;28;20423;-69
2021/07/19 11:01:25;;;;;;;14.40;8.77;;;21.40;99.90;;;;;;5080825;28;20552;-69
2021/07/19 11:03:53;;;;;;;10.17;9.07;;;21.40;99.90;;;;;;5079645;28;20551;-69
2021/07/19 11:06:31;;;;;;;10.30;8.83;;;21.40;99.90;;;;;;5085595;28;20810;-69
2021/07/19 11:08:57;;;;;;;11.60;8.50;;;21.40;99.90;;;;;;5078126;28;20950;-69
2021/07/19 11:11:33;;;;;;;10.70;8.33;;;21.40;99.90;;;;;;5091189;28;20519;-69
2021/07/19 11:14:02;;;;;;;9.60;8.60;;;21.50;99.90;;;;;;5080372;28;20420;-69
2021/07/19 11:16:40;;;;;;;10.47;8.30;;;21.70;99.90;;;;;;5089365;28;20416;-69
2021/07/19 11:19:05;;;;;;;9.70;7.40;;;21.80;99.90;;;;;;5082867;28;20436;-69
2021/07/19 11:21:32;;;;;;;11.83;9.00;;;21.90;99.90;;;;;;5084215;28;20435;-69
2021/07/19 11:24:08;;;;;;;10.10;7.43;;;21.80;99.90;;;;;;5084245;28;20174;-69
2021/07/19 11:26:45;;;;;;;12.27;8.27;;;21.80;99.90;;;;;;5074476;28;20420;-69
2021/07/19 11:29:11;;;;;;;12.03;9.23;;;21.80;99.90;;;;;;5096648;28;21012;-69
2021/07/19 11:31:36;;;;;;;11.40;8.90;;;21.80;99.90;;;;;;5076542;28;20432;-69
2021/07/19 11:34:04;;;;;;;12.73;8.57;;;21.90;99.90;;;;;;5086683;28;20239;-69
2021/07/19 11:36:47;;;;;;;8.87;7.97;;;21.90;99.90;;;;;;5086523;28;20539;-69
2021/07/19 11:39:21;;;;;;;13.00;8.30;;;21.90;99.90;;;;;;5081446;28;20988;-69
2021/07/19 11:41:58;;;;;;;10.97;8.10;;;21.80;99.90;;;;;;5085511;28;20481;-69
2021/07/19 11:44:24;;;;;;;8.50;7.53;;;21.70;99.90;;;;;;5086336;28;20420;-69
2021/07/19 11:46:50;;;;;;;8.83;7.93;;;21.50;99.90;;;;;;5085565;28;20426;-69
2021/07/19 11:49:21;;;;;;;13.33;7.97;;;21.40;99.90;;;;;;5078055;28;20678;-69
2021/07/19 11:51:47;;;;;;;10.30;8.67;;;21.30;99.90;;;;;;5090394;28;20424;-69
2021/07/19 11:54:15;;;;;;;9.83;8.30;;;21.20;99.90;;;;;;5079626;28;20681;-69
2021/07/19 11:56:46;;;;;;;10.47;8.53;;;21.10;99.90;;;;;;5086064;28;20258;-69
2021/07/19 11:59:12;;;;;;;11.63;8.20;;;21.10;99.90;;;;;;5076638;28;20680;-69
2021/07/19 12:01:38;;;;;;;11.13;8.33;;;21.20;99.90;;;;;;5067218;28;20421;-69
2021/07/19 12:04:05;;;;;;;10.27;8.87;;;21.30;99.90;;;;;;5066029;28;20434;-69
2021/07/19 12:06:32;;;;;;;12.83;9.87;;;21.30;99.90;;;;;;5066083;28;20179;-69
2021/07/19 12:09:04;;;;;;;12.93;8.03;;;21.40;99.90;;;;;;5065230;28;20428;-69
2021/07/19 12:11:31;;;;;;;13.50;9.80;;;21.50;99.90;;;;;;5060912;28;20426;-69
2021/07/19 12:14:00;;;;;;;12.27;9.17;;;21.70;99.90;;;;;;5050823;28;20465;-69
2021/07/19 12:16:36;;;;;;;10.80;8.90;;;21.80;99.90;;;;;;5053060;28;20426;-69
2021/07/19 12:19:02;;;;;;;12.40;8.80;;;21.90;99.90;;;;;;5041222;28;20948;-69
2021/07/19 12:21:30;;;;;;;11.37;9.00;;;22.00;99.90;;;;;;5050489;28;20422;-69
2021/07/19 12:23:58;;;;;;;10.50;8.97;;;22.00;99.90;;;;;;5044890;28;20415;-69
2021/07/19 12:31:51;;;;;;;12.60;8.47;;;21.80;99.90;;;;;;5057638;28;20652;-70
2021/07/19 12:34:22;;;;;;;10.40;8.50;;;21.70;99.90;;;;;;5051778;28;20484;-70
2021/07/19 12:42:08;;;;;;;10.83;9.00;;;21.60;99.90;;;;;;5068684;28;20536;-71
2021/07/19 12:44:35;;;;;;;12.20;8.60;;;21.70;99.90;;;;;;5062287;28;20421;-70
2021/07/19 12:47:00;;;;;;;10.30;8.47;;;21.80;99.90;;;;;;5066418;28;20433;-71
2021/07/19 12:55:03;;;;;;;14.27;9.17;;;21.90;99.90;;;;;;5075793;28;20536;-70
2021/07/19 12:57:30;;;;;;;11.47;9.20;;;22.00;99.90;;;;;;5052328;28;20932;-70
2021/07/19 12:59:57;;;;;;;13.20;10.30;;;22.00;99.90;;;;;;5040845;28;20478;-70
2021/07/19 13:02:24;;;;;;;14.13;10.00;;;22.10;99.90;;;;;;5038834;28;20415;-70
2021/07/19 13:04:51;;;;;;;14.30;9.73;;;22.10;99.90;;;;;;5044578;28;20439;-70
2021/07/19 13:07:32;;;;;;;10.90;9.00;;;22.20;99.90;;;;;;5047495;28;20500;-70
2021/07/19 13:10:00;;;;;;;11.00;9.20;;;22.20;99.90;;;;;;5051076;28;20428;-70